Time;durP1;ratioP1;P1;durP2;ratioP2;P2;SDS_P1;SDS_P2;PMS_P1;PMS_P2;Temp;Humidity;BMP_temperature;BMP_pressure;BME280_temperature;BME280_humidity;BME280_pressure;Samples;Min_cycle;Max_cycle;Signal;HPM_P1;HPM_P2
2021/07/02 03:21:55;;;;;;;;;;;;;;;10.67;80.44;99714.75;6279223;22;20361;-88
2021/07/02 03:24:20;;;;;;;;;;;;;;;10.60;80.17;99710.69;6252508;22;19983;-87
2021/07/02 03:29:33;;;;;;;;;;;;;;;10.67;80.07;99714.75;6273573;22;19959;-87
2021/07/02 03:31:58;;;;;;;;;;;;;;;10.64;80.12;99715.78;6280168;22;19938;-89
2021/07/02 03:34:23;;;;;;;;;;;;;;;10.57;80.69;99722.25;6254039;22;20280;-87
2021/07/02 03:36:49;;;;;;;;;;;;;;;10.60;81.33;99718.63;6253481;22;19954;-87
2021/07/02 03:39:14;;;;;;;;;;;;;;;10.67;81.35;99720.94;6280949;22;19915;-86
2021/07/02 03:41:39;;;;;;;;;;;;;;;10.69;81.80;99721.72;6279839;22;19930;-88
2021/07/02 03:44:05;;;;;;;;;;;;;;;10.63;82.21;99721.16;6279788;22;19926;-88
2021/07/02 03:46:33;;;;;;;;;;;;;;;10.61;83.60;99723.84;6282385;22;19974;-90
2021/07/02 03:48:58;;;;;;;;;;;;;;;10.61;82.95;99723.84;6280555;22;19926;-88
2021/07/02 03:51:24;;;;;;;;;;;;;;;10.65;83.29;99722.78;6280195;22;19915;-86
2021/07/02 03:53:49;;;;;;;;;;;;;;;10.77;89.08;99725.81;6282128;22;19957;-86
2021/07/02 03:56:15;;;;;;;;;;;;;;;10.85;88.47;99723.66;6281725;22;19915;-87
2021/07/02 03:58:40;;;;;;;;;;;;;;;11.01;90.73;99729.13;6281450;22;19915;-88
2021/07/02 04:01:05;;;;;;;;;;;;;;;11.02;87.03;99721.13;6282490;22;19922;-87
2021/07/02 04:03:32;;;;;;;;;;;;;;;11.02;87.13;99726.41;6281761;22;19922;-89
2021/07/02 04:05:57;;;;;;;;;;;;;;;11.01;88.14;99723.84;6282445;22;19969;-88
2021/07/02 04:08:23;;;;;;;;;;;;;;;10.99;85.65;99728.34;6281773;22;20188;-89
2021/07/02 04:10:48;;;;;;;;;;;;;;;10.95;86.92;99735.59;6282203;22;19926;-87
2021/07/02 04:13:15;;;;;;;;;;;;;;;10.92;86.74;99741.03;6281292;22;19926;-87
2021/07/02 04:15:40;;;;;;;;;;;;;;;10.93;87.13;99740.13;6281830;22;19937;-88
2021/07/02 04:18:07;;;;;;;;;;;;;;;10.98;85.48;99746.06;6254870;22;20296;-88
2021/07/02 04:20:32;;;;;;;;;;;;;;;11.15;85.60;99744.44;6281387;22;20259;-88
2021/07/02 04:22:58;;;;;;;;;;;;;;;11.04;84.34;99743.13;6281377;22;19915;-88
2021/07/02 04:25:26;;;;;;;;;;;;;;;11.00;83.45;99744.19;6281376;22;19915;-88
2021/07/02 04:27:51;;;;;;;;;;;;;;;11.05;85.48;99742.19;6281922;22;19987;-88
2021/07/02 04:30:17;;;;;;;;;;;;;;;11.01;83.33;99739.75;6281270;22;19915;-88
2021/07/02 04:32:42;;;;;;;;;;;;;;;10.97;83.69;99749.63;6282168;22;20288;-88
2021/07/02 04:35:09;;;;;;;;;;;;;;;10.94;83.71;99740.97;6281687;22;19916;-87
2021/07/02 04:37:35;;;;;;;;;;;;;;;10.75;84.60;99743.56;6281868;22;19919;-87
2021/07/02 04:40:00;;;;;;;;;;;;;;;10.78;85.27;99744.28;6280745;22;19989;-87
2021/07/02 04:42:25;;;;;;;;;;;;;;;10.86;83.54;99741.31;6254808;22;19944;-88
2021/07/02 07:51:37;;;;;;;;;;;;;;;10.82;81.74;99804.19;6280594;22;19926;-87
2021/07/02 07:54:02;;;;;;;;;;;;;;;10.82;81.91;99808.66;6255245;22;19930;-87
2021/07/02 07:56:30;;;;;;;;;;;;;;;10.88;81.34;99805.72;6281618;22;20242;-87
2021/07/02 07:58:55;;;;;;;;;;;;;;;10.84;81.82;99802.34;6281757;22;20179;-88
2021/07/02 08:01:21;;;;;;;;;;;;;;;11.08;81.63;99810.16;6279765;22;19916;-87
2021/07/02 08:03:46;;;;;;;;;;;;;;;11.18;80.07;99805.28;6279984;22;19911;-87
2021/07/02 08:06:11;;;;;;;;;;;;;;;10.92;81.94;99807.31;6280858;22;19922;-87
2021/07/02 08:08:37;;;;;;;;;;;;;;;10.91;81.68;99805.56;6280043;22;19938;-88
2021/07/02 08:11:02;;;;;;;;;;;;;;;10.92;81.96;99803.81;6281793;22;19947;-88
2021/07/02 08:13:29;;;;;;;;;;;;;;;10.88;81.80;99801.28;6254718;22;19972;-88
2021/07/02 08:15:54;;;;;;;;;;;;;;;11.00;81.29;99802.53;6281732;22;19919;-88
2021/07/02 08:18:20;;;;;;;;;;;;;;;11.03;80.97;99802.38;6280931;22;19926;-88
2021/07/02 08:20:45;;;;;;;;;;;;;;;10.99;81.91;99810.53;6282095;22;20272;-88
2021/07/02 08:23:13;;;;;;;;;;;;;;;11.09;81.29;99811.88;6280956;22;19926;-89
2021/07/02 08:25:39;;;;;;;;;;;;;;;11.17;81.32;99808.84;6281462;22;20187;-87
2021/07/02 08:30:49;;;;;;;;;;;;;;;11.29;81.07;99802.16;6282179;22;19926;-88
2021/07/02 08:33:18;;;;;;;;;;;;;;;11.07;81.75;99811.94;6281124;22;20196;-87
2021/07/02 08:35:43;;;;;;;;;;;;;;;11.08;81.57;99818.94;6280707;22;19916;-87
2021/07/02 08:38:09;;;;;;;;;;;;;;;11.07;81.99;99814.59;6281517;22;19958;-87
2021/07/02 08:40:35;;;;;;;;;;;;;;;11.06;82.43;99820.81;6280961;22;19977;-87
2021/07/02 08:43:00;;;;;;;;;;;;;;;11.24;81.55;99820.94;6282026;22;19915;-86
2021/07/02 08:45:25;;;;;;;;;;;;;;;11.29;81.00;99833.97;6280955;22;19919;-87
2021/07/02 08:47:54;;;;;;;;;;;;;;;11.18;81.65;99832.66;6281111;22;19926;-87
2021/07/02 08:50:22;;;;;;;;;;;;;;;11.15;82.18;99837.25;6281099;22;20288;-87
2021/07/02 08:52:48;;;;;;;;;;;;;;;11.17;81.69;99838.03;6254722;22;19919;-87
2021/07/02 08:55:13;;;;;;;;;;;;;;;11.29;80.64;99850.75;6281391;22;20259;-91
2021/07/02 08:57:38;;;;;;;;;;;;;;;11.31;81.06;99838.28;6246118;22;19955;-86
2021/07/02 09:00:04;;;;;;;;;;;;;;;11.26;80.73;99848.22;6250305;23;19927;-87
2021/07/02 09:02:31;;;;;;;;;;;;;;;11.19;81.28;99852.09;6250061;23;19922;-87
2021/07/02 09:04:57;;;;;;;;;;;;;;;11.17;82.74;99851.28;6248841;23;19916;-87
2021/07/02 09:07:22;;;;;;;;;;;;;;;11.15;82.13;99848.69;6248928;23;19970;-87
2021/07/02 09:09:55;;;;;;;;;;;;;;;11.18;82.17;99851.22;6248961;23;20292;-87
2021/07/02 09:15:04;;;;;;;;;;;;;;;11.27;81.63;99842.84;6280719;22;19919;-87
2021/07/02 09:17:30;;;;;;;;;;;;;;;11.08;82.12;99842.81;6280834;22;20311;-87
2021/07/02 09:20:15;;;;;;;;;;;;;;;11.02;82.74;99842.22;6280528;22;19911;-87
2021/07/02 09:22:50;;;;;;;;;;;;;;;11.05;82.60;99842.94;6280876;22;19915;-88
2021/07/02 09:25:20;;;;;;;;;;;;;;;11.02;82.74;99843.06;6280261;22;19915;-87
2021/07/02 09:27:52;;;;;;;;;;;;;;;10.99;82.70;99840.59;6278625;22;20196;-86
2021/07/02 09:30:18;;;;;;;;;;;;;;;11.00;83.44;99842.28;6280490;22;19915;-89
2021/07/02 09:32:48;;;;;;;;;;;;;;;11.05;82.88;99837.66;6280104;22;20177;-88
2021/07/02 09:35:16;;;;;;;;;;;;;;;11.02;82.74;99834.28;6278640;22;20249;-86
2021/07/02 09:37:43;;;;;;;;;;;;;;;10.96;83.72;99838.06;6280915;22;19969;-88
2021/07/02 09:40:10;;;;;;;;;;;;;;;11.02;83.60;99843.06;6280344;22;19923;-88
2021/07/02 09:42:35;;;;;;;;;;;;;;;11.01;83.14;99846.69;6280653;22;20162;-87
2021/07/02 09:45:05;;;;;;;;;;;;;;;10.96;83.93;99843.38;6280479;22;19938;-86
2021/07/02 09:47:30;;;;;;;;;;;;;;;10.99;83.82;99848.53;6280008;22;20008;-87
2021/07/02 09:50:14;;;;;;;;;;;;;;;11.00;83.79;99849.41;6280361;22;20299;-86
2021/07/02 09:52:58;;;;;;;;;;;;;;;10.95;84.48;99846.09;6280616;22;19915;-86
2021/07/02 09:55:28;;;;;;;;;;;;;;;10.96;84.28;99843.38;6253237;22;19915;-85
2021/07/02 09:58:04;;;;;;;;;;;;;;;10.96;84.43;99840.72;6279993;22;19918;-86
2021/07/02 10:00:31;;;;;;;;;;;;;;;11.06;83.92;99839.38;6253359;22;19915;-86
2021/07/02 10:02:57;;;;;;;;;;;;;;;11.12;85.13;99834.72;6279390;22;19974;-87
2021/07/02 10:05:23;;;;;;;;;;;;;;;11.14;83.24;99836.38;6283980;22;20292;-87
2021/07/02 10:07:59;;;;;;;;;;;;;;;11.09;83.41;99839.25;6279242;22;19916;-86
2021/07/02 10:10:25;;;;;;;;;;;;;;;11.03;83.60;99834.22;6253890;22;19986;-87
2021/07/02 10:12:52;;;;;;;;;;;;;;;11.12;83.69;99832.06;6253566;22;19918;-88
2021/07/02 10:15:21;;;;;;;;;;;;;;;11.05;83.60;99829.69;6279926;22;19919;-91
2021/07/02 10:17:47;;;;;;;;;;;;;;;11.00;84.37;99833.50;6280438;22;19919;-87
2021/07/02 10:20:14;;;;;;;;;;;;;;;11.02;83.65;99836.94;6280409;22;19926;-87
2021/07/02 10:22:39;;;;;;;;;;;;;;;11.04;83.38;99833.28;6254124;22;19915;-87
2021/07/02 10:25:05;;;;;;;;;;;;;;;11.04;83.22;99833.28;6280931;22;19973;-88
2021/07/02 10:27:31;;;;;;;;;;;;;;;11.06;83.48;99818.16;6280524;22;19986;-87
2021/07/02 10:29:57;;;;;;;;;;;;;;;11.02;83.29;99828.97;6280606;22;19915;-89
2021/07/02 10:32:23;;;;;;;;;;;;;;;11.08;83.47;99820.75;6280056;22;19970;-87
2021/07/02 10:34:49;;;;;;;;;;;;;;;11.35;82.21;99820.44;6279794;22;19923;-87
2021/07/02 10:37:14;;;;;;;;;;;;;;;11.15;83.09;99821.34;6279329;22;19934;-87
2021/07/02 10:39:45;;;;;;;;;;;;;;;11.03;83.58;99820.09;6280018;22;19978;-87
2021/07/02 10:42:11;;;;;;;;;;;;;;;11.20;82.99;99816.69;6278359;22;20129;-89
2021/07/02 10:44:59;;;;;;;;;;;;;;;11.11;83.31;99817.97;6279253;22;19925;-87
2021/07/02 10:47:25;;;;;;;;;;;;;;;11.11;83.30;99825.06;6229464;22;19926;-87
2021/07/02 10:49:50;;;;;;;;;;;;;;;11.04;83.46;99820.03;6280811;22;19915;-87
2021/07/02 10:52:23;;;;;;;;;;;;;;;11.15;83.15;99821.34;6279777;22;19919;-87
2021/07/02 10:54:49;;;;;;;;;;;;;;;11.33;82.38;99820.50;6279932;22;19947;-88
2021/07/02 10:57:17;;;;;;;;;;;;;;;11.16;82.87;99823.91;6279160;22;20057;-87
2021/07/02 10:59:49;;;;;;;;;;;;;;;11.01;84.03;99819.28;6279460;22;19915;-87
2021/07/02 11:02:21;;;;;;;;;;;;;;;11.20;82.74;99828.16;6252961;22;19923;-87
2021/07/02 11:04:48;;;;;;;;;;;;;;;11.14;83.22;99816.97;6279844;22;20177;-87
2021/07/02 11:07:21;;;;;;;;;;;;;;;11.31;82.01;99817.03;6253282;22;19915;-87
2021/07/02 11:09:46;;;;;;;;;;;;;;;11.07;83.75;99822.56;6253586;22;19973;-87
2021/07/02 11:12:12;;;;;;;;;;;;;;;11.06;83.59;99823.47;6279612;22;19989;-92
2021/07/02 11:14:56;;;;;;;;;;;;;;;11.35;81.71;99816.00;6280137;22;19915;-86
2021/07/02 11:17:30;;;;;;;;;;;;;;;11.16;83.04;99815.09;6253293;22;19920;-89
2021/07/02 11:20:25;;;;;;;;;;;;;;;11.13;83.04;99812.59;6280392;22;19915;-87
2021/07/02 11:22:58;;;;;;;;;;;;;;;11.16;82.91;99807.16;6279796;22;20383;-88
2021/07/02 11:25:30;;;;;;;;;;;;;;;11.19;82.72;99804.38;6279954;22;19943;-89
2021/07/02 11:30:22;;;;;;;;;;;;;;;11.20;82.59;99803.41;6287054;22;19911;-88
2021/07/02 11:32:49;;;;;;;;;;;;;;;11.23;82.35;99800.63;6278771;22;19915;-87
2021/07/02 11:38:01;;;;;;;;;;;;;;;11.21;81.92;99802.50;6280746;22;19919;-87
2021/07/02 11:40:37;;;;;;;;;;;;;;;11.28;82.30;99793.34;6253044;22;20312;-88
2021/07/02 11:43:07;;;;;;;;;;;;;;;11.30;82.36;99782.66;6279221;22;20216;-87
2021/07/02 11:45:39;;;;;;;;;;;;;;;11.36;81.96;99788.53;6279547;22;19915;-87
2021/07/02 11:48:05;;;;;;;;;;;;;;;11.33;82.16;99785.16;6279727;22;19943;-87
2021/07/02 11:50:41;;;;;;;;;;;;;;;11.20;82.96;99784.84;6280245;22;19919;-88
2021/07/02 11:53:06;;;;;;;;;;;;;;;11.29;82.40;99784.44;6253453;22;19922;-87
2021/07/02 11:55:32;;;;;;;;;;;;;;;11.45;81.44;99777.50;6279251;22;19915;-86
2021/07/02 11:58:16;;;;;;;;;;;;;;;11.29;82.52;99781.78;6279604;22;19919;-88
2021/07/02 12:00:43;;;;;;;;;;;;;;;11.30;82.85;99783.50;6279203;22;20115;-87
2021/07/02 12:03:09;;;;;;;;;;;;;;;11.17;83.56;99777.03;6252536;22;19919;-88
2021/07/02 12:05:35;;;;;;;;;;;;;;;11.16;83.54;99783.28;6279334;22;19915;-87
2021/07/02 12:08:01;;;;;;;;;;;;;;;11.19;83.42;99775.19;6253219;22;20053;-87
2021/07/02 12:10:26;;;;;;;;;;;;;;;11.19;82.91;99775.19;6253502;22;19919;-87
2021/07/02 12:13:04;;;;;;;;;;;;;;;11.25;82.67;99769.63;6278892;22;19947;-89
2021/07/02 12:15:29;;;;;;;;;;;;;;;11.38;82.22;99770.75;6280522;22;20429;-87
2021/07/02 12:18:01;;;;;;;;;;;;;;;11.29;82.67;99765.03;6280677;22;19915;-88
2021/07/02 12:20:26;;;;;;;;;;;;;;;11.30;82.66;99764.94;6280660;22;19915;-88
2021/07/02 12:23:02;;;;;;;;;;;;;;;11.51;82.45;99764.88;6281248;22;19926;-88
2021/07/02 12:25:27;;;;;;;;;;;;;;;11.32;82.54;99759.56;6280814;22;19915;-88
2021/07/02 12:27:58;;;;;;;;;;;;;;;11.43;82.23;99766.09;6280391;22;20221;-86
2021/07/02 12:30:24;;;;;;;;;;;;;;;11.41;82.42;99760.00;6254318;22;20328;-87
2021/07/02 12:32:51;;;;;;;;;;;;;;;11.33;82.18;99762.16;6280454;22;19918;-87
2021/07/02 12:35:20;;;;;;;;;;;;;;;11.33;82.53;99762.16;6254885;22;20025;-86
2021/07/02 12:37:45;;;;;;;;;;;;;;;11.42;81.79;99761.72;6254342;22;19942;-88
2021/07/02 12:40:13;;;;;;;;;;;;;;;11.42;82.19;99764.38;6280239;22;19916;-87
2021/07/02 12:42:42;;;;;;;;;;;;;;;11.41;81.91;99757.34;6280800;22;19915;-87
2021/07/02 12:45:08;;;;;;;;;;;;;;;11.46;82.01;99762.44;6254934;22;19919;-88
2021/07/02 12:47:34;;;;;;;;;;;;;;;11.38;82.70;99754.00;6254274;22;19915;-88
2021/07/02 12:50:03;;;;;;;;;;;;;;;11.42;82.22;99756.44;6281680;22;19919;-87
2021/07/02 12:54:55;;;;;;;;;;;;;;;11.35;82.49;99748.81;6286356;22;19925;-87
2021/07/02 12:57:25;;;;;;;;;;;;;;;11.33;82.82;99758.63;6280657;22;19973;-87
2021/07/02 12:59:55;;;;;;;;;;;;;;;11.43;82.15;99751.97;6280695;22;19919;-88
2021/07/02 13:02:23;;;;;;;;;;;;;;;11.44;82.33;99754.56;6280881;22;19919;-88
2021/07/02 13:04:48;;;;;;;;;;;;;;;11.40;82.48;99757.41;6280632;22;19915;-87
2021/07/02 13:07:14;;;;;;;;;;;;;;;11.44;82.48;99757.22;6253916;22;19991;-91
2021/07/02 13:09:39;;;;;;;;;;;;;;;11.36;82.05;99756.72;6283593;22;19919;-88
2021/07/02 13:12:11;;;;;;;;;;;;;;;11.50;81.83;99749.88;6254919;22;20350;-87
2021/07/02 13:14:40;;;;;;;;;;;;;;;11.39;82.38;99756.56;6255087;22;19965;-87
2021/07/02 13:17:06;;;;;;;;;;;;;;;11.44;82.08;99754.56;6254721;22;19929;-88
2021/07/02 13:19:31;;;;;;;;;;;;;;;11.40;82.26;99763.56;6280652;22;19915;-87
2021/07/02 13:22:15;;;;;;;;;;;;;;;11.36;82.46;99756.72;6254178;22;19926;-88
2021/07/02 13:24:41;;;;;;;;;;;;;;;11.42;82.03;99750.25;6281135;22;19950;-86
2021/07/02 13:27:08;;;;;;;;;;;;;;;11.41;82.36;99746.75;6253766;22;19915;-87
2021/07/02 13:29:33;;;;;;;;;;;;;;;11.38;82.89;99752.19;6254212;22;20280;-87
2021/07/02 13:31:59;;;;;;;;;;;;;;;11.40;82.84;99752.97;6281285;22;19916;-87
2021/07/02 13:34:37;;;;;;;;;;;;;;;11.42;82.75;99750.25;6280897;22;19937;-88
2021/07/02 13:37:02;;;;;;;;;;;;;;;11.36;82.90;99751.41;6280917;22;19954;-87
2021/07/02 13:39:39;;;;;;;;;;;;;;;11.43;82.49;99752.81;6280231;22;19915;-87
2021/07/02 13:42:05;;;;;;;;;;;;;;;11.43;82.88;99746.66;6280275;22;19915;-88
2021/07/02 13:44:40;;;;;;;;;;;;;;;11.43;82.71;99749.31;6252864;22;19983;-87
2021/07/02 13:47:07;;;;;;;;;;;;;;;11.39;82.75;99745.97;6279908;22;19922;-87
2021/07/02 13:49:34;;;;;;;;;;;;;;;11.31;83.33;99732.16;6280242;22;19915;-86
2021/07/02 13:51:59;;;;;;;;;;;;;;;11.45;82.41;99734.19;6280547;22;20291;-88
2021/07/02 13:54:25;;;;;;;;;;;;;;;11.40;82.20;99739.69;6280158;22;19982;-88
2021/07/02 13:56:50;;;;;;;;;;;;;;;11.40;82.45;99738.84;6280080;22;20300;-87
2021/07/02 13:59:20;;;;;;;;;;;;;;;11.35;82.94;99731.09;6281436;22;19915;-87
2021/07/02 14:01:45;;;;;;;;;;;;;;;11.35;82.43;99727.59;6281028;22;20339;-86
2021/07/02 14:04:11;;;;;;;;;;;;;;;11.36;82.25;99727.53;6248524;22;19920;-88
2021/07/02 14:06:38;;;;;;;;;;;;;;;11.47;82.14;99723.50;6249710;23;19915;-88
2021/07/02 14:09:04;;;;;;;;;;;;;;;11.42;82.67;99727.25;6250655;23;20001;-89
2021/07/02 14:11:29;;;;;;;;;;;;;;;11.40;82.71;99731.75;6249313;23;20320;-88
2021/07/02 14:13:55;;;;;;;;;;;;;;;11.38;83.06;99728.31;6253185;22;19915;-89
2021/07/02 14:16:20;;;;;;;;;;;;;;;11.38;83.32;99738.06;6253484;22;20493;-88
2021/07/02 14:18:46;;;;;;;;;;;;;;;11.33;82.96;99725.03;6280370;22;20326;-88
2021/07/02 14:21:14;;;;;;;;;;;;;;;11.40;82.22;99725.59;6280072;22;20227;-89
2021/07/02 14:23:39;;;;;;;;;;;;;;;11.37;82.94;99731.88;6280025;22;19923;-88
2021/07/02 14:26:05;;;;;;;;;;;;;;;11.41;82.87;99733.47;6279835;22;19915;-88
2021/07/02 14:28:43;;;;;;;;;;;;;;;;;;;;;
2021/07/02 14:31:08;;;;;;;;;;;;;;;12.85;84.52;99724.53;6283070;22;19950;-90
2021/07/02 14:33:36;;;;;;;;;;;;;;;12.13;85.87;99725.63;6254319;22;19926;-89
2021/07/02 14:36:02;;;;;;;;;;;;;;;11.88;84.80;99723.28;6255227;22;20195;-90
2021/07/02 14:38:41;;;;;;;;;;;;;;;11.68;85.04;99724.25;6254161;22;19999;-90
2021/07/02 14:41:09;;;;;;;;;;;;;;;11.65;84.61;99725.28;6282046;22;19919;-90
2021/07/02 14:43:34;;;;;;;;;;;;;;;11.62;83.66;99722.78;6253130;22;19922;-90
2021/07/02 14:46:00;;;;;;;;;;;;;;;11.60;83.29;99722.00;6280691;22;20276;-89
2021/07/02 14:48:27;;;;;;;;;;;;;;;11.53;83.98;99720.56;6253952;22;20006;-89
2021/07/02 14:50:53;;;;;;;;;;;;;;;11.56;83.59;99725.72;6279453;22;19915;-89
2021/07/02 14:53:21;;;;;;;;;;;;;;;11.48;83.52;99722.56;6280287;22;19989;-89
2021/07/02 14:55:47;;;;;;;;;;;;;;;11.54;83.32;99728.44;6280388;22;19946;-90
2021/07/02 14:58:19;;;;;;;;;;;;;;;11.51;83.46;99725.09;6280895;22;19970;-90
2021/07/02 15:00:45;;;;;;;;;;;;;;;11.49;83.13;99725.16;6279357;22;19918;-91
2021/07/02 15:03:11;;;;;;;;;;;;;;;11.52;83.22;99725.00;6253096;22;20185;-90
2021/07/02 15:05:39;;;;;;;;;;;;;;;11.54;83.63;99723.13;6253673;22;20243;-91
2021/07/02 15:08:08;;;;;;;;;;;;;;;11.52;83.54;99725.00;6253457;22;20211;-93
2021/07/02 15:10:33;;;;;;;;;;;;;;;11.61;83.34;99726.34;6280304;22;19954;-90
2021/07/02 15:13:06;;;;;;;;;;;;;;;11.52;83.14;99724.13;6253661;22;19915;-90
2021/07/02 15:21:14;;;;;;;;;;;;;;;11.56;83.09;99725.72;6271913;22;19926;-91
2021/07/02 15:26:38;;;;;;;;;;;;;;;11.57;82.26;99723.00;6280164;22;19915;-91
2021/07/02 15:29:04;;;;;;;;;;;;;;;11.51;82.98;99728.59;6254469;22;19925;-88
2021/07/02 15:34:46;;;;;;;;;;;;;;;11.52;83.16;99725.00;6187228;23;20317;-91
2021/07/02 15:37:14;;;;;;;;;;;;;;;11.52;82.81;99722.34;6273031;22;20545;-90
2021/07/02 15:39:54;;;;;;;;;;;;;;;11.60;82.54;99716.69;6281827;22;19942;-92
2021/07/02 15:42:19;;;;;;;;;;;;;;;11.56;82.53;99710.66;6255175;22;19915;-89
2021/07/02 15:44:46;;;;;;;;;;;;;;;11.62;82.56;99704.19;6279020;22;20211;-89
2021/07/02 15:47:20;;;;;;;;;;;;;;;11.47;82.99;99708.44;6253516;22;19916;-92
2021/07/02 15:55:26;;;;;;;;;;;;;;;11.49;83.46;99705.69;6268653;22;19922;-91
2021/07/02 15:57:52;;;;;;;;;;;;;;;11.53;83.73;99707.28;6254784;22;19919;-90
2021/07/02 16:03:25;;;;;;;;;;;;;;;11.53;83.78;99699.31;6286136;22;19993;-90
2021/07/02 16:08:39;;;;;;;;;;;;;;;;;;;;;
2021/07/02 16:11:07;;;;;;;;;;;;;;;11.87;85.32;99702.97;6208293;22;19935;-90
2021/07/02 16:13:33;;;;;;;;;;;;;;;11.73;87.23;99707.19;6280234;22;19919;-87
2021/07/02 16:15:58;;;;;;;;;;;;;;;11.75;87.84;99710.63;6254227;22;19941;-88
2021/07/02 16:18:49;;;;;;;;;;;;;;;11.71;88.15;99703.75;6280860;22;19927;-89
2021/07/02 16:21:15;;;;;;;;;;;;;;;12.28;88.85;99698.25;6264232;22;19923;-87
2021/07/02 16:23:50;;;;;;;;;;;;;;;;;;;;;
2021/07/02 16:26:07;;;;;;;;;;;;;;;11.92;85.71;99699.22;6268319;22;19926;-88
2021/07/02 16:31:12;;;;;;;;;;;;;;;11.49;85.75;99700.41;6280145;22;19929;-89
2021/07/02 16:33:38;;;;;;;;;;;;;;;11.34;85.95;99697.53;6254795;22;19915;-90
2021/07/02 16:36:16;;;;;;;;;;;;;;;;;;;;;
2021/07/02 16:39:01;;;;;;;;;;;;;;;11.34;89.08;99688.72;6268193;22;20308;-91
2021/07/02 16:42:27;;;;;;;;;;;;;;;;;;;;;
2021/07/02 16:48:06;;;;;;;;;;;;;;;10.96;89.16;99684.31;6239831;22;19981;-87
2021/07/02 16:50:51;;;;;;;;;;;;;;;10.79;88.79;99685.06;6254260;22;20364;-88
2021/07/02 16:53:20;;;;;;;;;;;;;;;10.61;88.79;99688.53;6280212;22;19933;-88
2021/07/02 16:55:45;;;;;;;;;;;;;;;10.53;88.96;99686.25;6254246;22;19925;-89
2021/07/02 16:58:10;;;;;;;;;;;;;;;10.44;90.63;99681.34;6280466;22;20251;-90
2021/07/02 17:00:36;;;;;;;;;;;;;;;10.62;92.38;99677.00;6253310;22;19921;-89
2021/07/02 17:03:12;;;;;;;;;;;;;;;10.36;96.94;99671.94;6253164;22;19974;-89
2021/07/02 17:05:37;;;;;;;;;;;;;;;10.22;99.15;99676.94;6280075;22;20321;-89
2021/07/02 17:08:06;;;;;;;;;;;;;;;10.06;100.00;99674.09;6280854;22;19926;-90
2021/07/02 17:10:34;;;;;;;;;;;;;;;9.97;100.00;99678.00;6280438;22;19926;-90
2021/07/02 17:13:00;;;;;;;;;;;;;;;10.04;100.00;99672.44;6254744;22;19930;-88
2021/07/02 17:15:25;;;;;;;;;;;;;;;10.09;100.00;99671.31;6281145;22;20210;-89
2021/07/02 17:17:56;;;;;;;;;;;;;;;10.33;100.00;99676.50;6279653;22;19923;-88
2021/07/02 17:20:34;;;;;;;;;;;;;;;10.63;100.00;99660.19;6253095;22;19919;-90
2021/07/02 17:23:02;;;;;;;;;;;;;;;10.92;100.00;99668.63;6279361;22;19922;-89
2021/07/02 17:25:30;;;;;;;;;;;;;;;11.17;100.00;99663.00;6280361;22;19977;-89
2021/07/02 17:27:56;;;;;;;;;;;;;;;11.32;100.00;99654.31;6280461;22;19911;-88
2021/07/02 17:30:27;;;;;;;;;;;;;;;11.44;100.00;99664.34;6253149;22;20255;-89
2021/07/02 17:36:21;;;;;;;;;;;;;;;11.78;100.00;99648.56;6213964;22;19915;-90
2021/07/02 17:38:58;;;;;;;;;;;;;;;11.89;100.00;99654.19;6280192;22;19929;-89
2021/07/02 17:41:29;;;;;;;;;;;;;;;11.97;100.00;99661.81;6280478;22;19919;-90
2021/07/02 17:43:55;;;;;;;;;;;;;;;12.07;100.00;99660.38;6253928;22;19938;-89
2021/07/02 17:46:23;;;;;;;;;;;;;;;12.18;100.00;99665.16;6281128;22;20272;-89
2021/07/02 17:48:55;;;;;;;;;;;;;;;12.30;100.00;99668.97;6253250;22;19950;-88
2021/07/02 17:51:20;;;;;;;;;;;;;;;12.33;100.00;99658.19;6279414;22;20226;-90
2021/07/02 17:53:46;;;;;;;;;;;;;;;12.34;100.00;99666.06;6280102;22;20472;-88
2021/07/02 17:56:11;;;;;;;;;;;;;;;12.39;100.00;99665.84;6279841;22;19923;-89
2021/07/02 17:58:37;;;;;;;;;;;;;;;12.51;100.00;99657.22;6279334;22;20181;-88
2021/07/02 18:01:05;;;;;;;;;;;;;;;12.03;100.00;99655.31;6280511;22;19930;-89
2021/07/02 18:03:35;;;;;;;;;;;;;;;10.50;100.00;99657.25;6279105;22;20043;-88
2021/07/02 18:06:20;;;;;;;;;;;;;;;;;;;;;
2021/07/02 18:17:13;;;;;;;;;;;;;;;8.79;100.00;99651.84;6237148;23;20315;-89
2021/07/02 18:22:38;;;;;;;;;;;;;;;8.57;99.66;99649.13;6219551;22;19915;-90
2021/07/02 18:25:07;;;;;;;;;;;;;;;8.53;98.75;99655.44;6255200;22;19990;-89
2021/07/02 18:27:38;;;;;;;;;;;;;;;8.52;97.58;99651.06;6279430;22;19922;-88
2021/07/02 18:30:26;;;;;;;;;;;;;;;8.32;96.73;99646.47;6253854;22;19969;-90
2021/07/02 18:32:56;;;;;;;;;;;;;;;8.24;96.05;99654.66;6279202;22;19919;-88
2021/07/02 18:35:32;;;;;;;;;;;;;;;;;;;;;
2021/07/02 18:38:01;;;;;;;;;;;;;;;8.07;94.87;99654.41;6279347;22;20003;-91
2021/07/02 18:40:26;;;;;;;;;;;;;;;8.04;94.41;99655.38;6253305;22;19915;-88
2021/07/02 18:42:52;;;;;;;;;;;;;;;8.01;93.63;99658.13;6251997;22;19930;-88
2021/07/02 18:45:20;;;;;;;;;;;;;;;7.97;93.93;99653.84;6278027;22;19990;-89
2021/07/02 18:47:45;;;;;;;;;;;;;;;7.95;92.95;99660.97;6256440;22;19915;-88
2021/07/02 18:53:30;;;;;;;;;;;;;;;7.82;93.50;99661.38;6184768;23;19975;-91
2021/07/02 18:55:58;;;;;;;;;;;;;;;7.81;93.08;99667.56;6243025;22;19919;-91
2021/07/02 18:58:35;;;;;;;;;;;;;;;7.82;93.28;99664.00;6279279;22;19926;-90
2021/07/02 19:01:04;;;;;;;;;;;;;;;7.79;92.80;99671.16;6278448;22;19927;-88
2021/07/02 19:03:30;;;;;;;;;;;;;;;7.82;92.62;99676.34;6279870;22;19934;-89
2021/07/02 19:05:56;;;;;;;;;;;;;;;7.75;92.97;99672.19;6282287;22;20287;-88
2021/07/02 19:08:24;;;;;;;;;;;;;;;7.67;93.01;99667.16;6278671;22;19982;-89
2021/07/02 19:16:29;;;;;;;;;;;;;;;7.61;92.54;99675.25;6279466;22;19919;-91
2021/07/02 19:27:08;;;;;;;;;;;;;;;7.54;92.88;99671.09;6280660;22;19926;-88
2021/07/02 19:32:10;;;;;;;;;;;;;;;7.42;93.07;99667.97;6286729;22;19994;-88
2021/07/02 19:34:36;;;;;;;;;;;;;;;7.55;92.05;99668.44;6286904;22;19942;-90
2021/07/02 19:37:13;;;;;;;;;;;;;;;7.44;92.77;99674.03;6281966;22;19914;-90
2021/07/02 19:39:38;;;;;;;;;;;;;;;7.39;93.20;99675.09;6280066;22;19942;-88
2021/07/02 19:42:13;;;;;;;;;;;;;;;7.36;93.54;99673.41;6281974;22;19981;-92
2021/07/02 19:57:15;;;;;;;;;;;;;;;7.35;92.10;99678.75;6281904;22;19917;-88
2021/07/02 20:11:12;;;;;;;;;;;;;;;7.27;92.56;99689.50;6280134;22;19950;-87
2021/07/02 20:16:07;;;;;;;;;;;;;;;7.21;93.45;99681.78;6270294;22;20311;-87
2021/07/02 20:18:32;;;;;;;;;;;;;;;7.32;92.70;99682.31;6254958;22;19915;-88
2021/07/02 20:23:57;;;;;;;;;;;;;;;7.20;93.16;99694.13;6232721;22;19943;-88
2021/07/02 20:26:25;;;;;;;;;;;;;;;7.26;92.89;99687.81;6254609;22;19986;-89
2021/07/02 20:29:16;;;;;;;;;;;;;;;7.26;93.14;99693.06;6280597;22;19920;-88
2021/07/02 20:31:53;;;;;;;;;;;;;;;;;;;;;
2021/07/02 20:34:43;;;;;;;;;;;;;;;7.19;93.12;99702.06;6266487;22;19947;-86
2021/07/02 20:37:27;;;;;;;;;;;;;;;;;;;;;
2021/07/02 20:39:59;;;;;;;;;;;;;;;7.27;93.07;99710.59;6279714;22;20244;-89
2021/07/02 20:43:02;;;;;;;;;;;;;;;7.20;93.15;99711.72;6279537;22;19915;-89
2021/07/02 20:45:42;;;;;;;;;;;;;;;;;;;;;
2021/07/02 20:48:11;;;;;;;;;;;;;;;7.12;93.94;99711.09;6281755;22;19943;-89
2021/07/02 20:50:46;;;;;;;;;;;;;;;7.20;94.17;99720.47;6279979;22;19930;-87
2021/07/02 20:58:02;;;;;;;;;;;;;;;7.15;93.31;99722.38;6279415;22;19941;-87
2021/07/02 21:00:28;;;;;;;;;;;;;;;7.11;93.87;99717.25;6280654;22;19919;-88
2021/07/02 21:05:53;;;;;;;;;;;;;;;7.11;92.92;99714.63;6279776;22;19926;-87
2021/07/02 21:08:19;;;;;;;;;;;;;;;7.12;93.41;99717.19;6279697;22;20002;-88
2021/07/02 21:10:46;;;;;;;;;;;;;;;7.12;92.76;99716.34;6280235;22;19915;-89
2021/07/02 21:13:12;;;;;;;;;;;;;;;6.99;93.66;99721.09;6280327;22;19939;-87
2021/07/02 21:15:49;;;;;;;;;;;;;;;7.17;93.22;99709.16;6279432;22;19921;-88
2021/07/02 21:18:18;;;;;;;;;;;;;;;7.09;93.00;99707.59;6253880;22;19929;-88
2021/07/02 21:20:49;;;;;;;;;;;;;;;7.07;92.62;99708.56;6251847;22;20371;-87
2021/07/02 21:23:14;;;;;;;;;;;;;;;7.14;93.65;99711.88;6279700;22;19931;-87
2021/07/02 21:25:49;;;;;;;;;;;;;;;7.03;93.20;99710.41;6252633;22;20201;-88
2021/07/02 21:28:14;;;;;;;;;;;;;;;7.01;92.81;99706.13;6252873;22;19977;-87
2021/07/02 21:30:39;;;;;;;;;;;;;;;7.05;91.82;99716.53;6279295;22;20303;-87
2021/07/02 21:33:05;;;;;;;;;;;;;;;6.93;92.71;99705.50;6253947;22;19938;-87